sensor_id;sensor_type;location;lat;lon;timestamp;pressure;altitude;pressure_sealevel;temperature;humidity
25664;BME280;13522;50.018;20.014;2022-12-17T00:03:02;98727.11;;;-1.64;100.00
25664;BME280;13522;50.018;20.014;2022-12-17T00:06:28;98723.73;;;-1.66;100.00
25664;BME280;13522;50.018;20.014;2022-12-17T00:09:55;98718.87;;;-1.73;100.00
25664;BME280;13522;50.018;20.014;2022-12-17T00:13:22;98720.50;;;-1.71;100.00
25664;BME280;13522;50.018;20.014;2022-12-17T00:16:49;98713.74;;;-1.75;100.00
25664;BME280;13522;50.018;20.014;2022-12-17T00:20:16;98725.70;;;-1.71;100.00
25664;BME280;13522;50.018;20.014;2022-12-17T00:23:38;98732.93;;;-1.78;100.00
25664;BME280;13522;50.018;20.014;2022-12-17T00:27:05;98728.38;;;-1.72;100.00
25664;BME280;13522;50.018;20.014;2022-12-17T00:30:31;98732.59;;;-1.70;100.00
25664;BME280;13522;50.018;20.014;2022-12-17T00:33:58;98740.20;;;-1.65;100.00
25664;BME280;13522;50.018;20.014;2022-12-17T00:37:25;98743.00;;;-1.70;100.00
25664;BME280;13522;50.018;20.014;2022-12-17T00:40:53;98748.86;;;-1.65;100.00
25664;BME280;13522;50.018;20.014;2022-12-17T00:44:19;98742.80;;;-1.65;100.00
25664;BME280;13522;50.018;20.014;2022-12-17T00:47:47;98750.49;;;-1.62;100.00
25664;BME280;13522;50.018;20.014;2022-12-17T00:51:15;98755.12;;;-1.69;100.00
25664;BME280;13522;50.018;20.014;2022-12-17T00:54:42;98764.23;;;-1.79;100.00
25664;BME280;13522;50.018;20.014;2022-12-17T00:58:08;98763.66;;;-1.86;100.00
25664;BME280;13522;50.018;20.014;2022-12-17T01:01:35;98764.63;;;-1.88;100.00
25664;BME280;13522;50.018;20.014;2022-12-17T01:05:02;98774.91;;;-1.85;100.00
25664;BME280;13522;50.018;20.014;2022-12-17T01:08:27;98777.44;;;-1.84;100.00
25664;BME280;13522;50.018;20.014;2022-12-17T01:11:54;98787.85;;;-1.84;100.00
25664;BME280;13522;50.018;20.014;2022-12-17T01:15:21;98797.30;;;-1.81;100.00
25664;BME280;13522;50.018;20.014;2022-12-17T01:18:47;98797.14;;;-1.78;100.00
25664;BME280;13522;50.018;20.014;2022-12-17T01:22:13;98792.20;;;-1.84;100.00
25664;BME280;13522;50.018;20.014;2022-12-17T01:25:40;98810.42;;;-1.84;100.00
25664;BME280;13522;50.018;20.014;2022-12-17T01:29:05;98808.08;;;-1.90;100.00
25664;BME280;13522;50.018;20.014;2022-12-17T01:32:32;98818.96;;;-2.01;100.00
25664;BME280;13522;50.018;20.014;2022-12-17T01:35:59;98818.44;;;-2.09;100.00
25664;BME280;13522;50.018;20.014;2022-12-17T01:39:25;98814.34;;;-2.14;100.00
25664;BME280;13522;50.018;20.014;2022-12-17T01:42:52;98811.78;;;-2.16;100.00
25664;BME280;13522;50.018;20.014;2022-12-17T01:46:21;98819.55;;;-2.14;100.00
25664;BME280;13522;50.018;20.014;2022-12-17T01:49:47;98821.93;;;-2.10;100.00
25664;BME280;13522;50.018;20.014;2022-12-17T01:53:11;98810.81;;;-2.13;100.00
25664;BME280;13522;50.018;20.014;2022-12-17T01:56:41;98802.57;;;-2.03;100.00
25664;BME280;13522;50.018;20.014;2022-12-17T02:00:12;98805.88;;;-1.99;100.00
25664;BME280;13522;50.018;20.014;2022-12-17T02:03:40;98806.99;;;-2.05;100.00
25664;BME280;13522;50.018;20.014;2022-12-17T02:07:22;98803.68;;;-2.08;100.00
25664;BME280;13522;50.018;20.014;2022-12-17T02:10:56;98800.16;;;-2.07;100.00
25664;BME280;13522;50.018;20.014;2022-12-17T02:14:32;98802.64;;;-2.04;100.00
25664;BME280;13522;50.018;20.014;2022-12-17T02:18:03;98804.98;;;-1.98;100.00
25664;BME280;13522;50.018;20.014;2022-12-17T02:21:33;98792.76;;;-1.96;100.00
25664;BME280;13522;50.018;20.014;2022-12-17T02:25:03;98799.19;;;-2.05;100.00
25664;BME280;13522;50.018;20.014;2022-12-17T02:28:33;98792.28;;;-2.06;100.00
25664;BME280;13522;50.018;20.014;2022-12-17T02:32:01;98782.39;;;-2.18;100.00
25664;BME280;13522;50.018;20.014;2022-12-17T02:35:31;98774.80;;;-2.22;100.00
25664;BME280;13522;50.018;20.014;2022-12-17T02:39:01;98769.14;;;-2.32;100.00
25664;BME280;13522;50.018;20.014;2022-12-17T02:42:29;98751.13;;;-2.36;100.00
25664;BME280;13522;50.018;20.014;2022-12-17T02:45:57;98767.08;;;-2.45;100.00
25664;BME280;13522;50.018;20.014;2022-12-17T02:49:22;98809.04;;;-2.33;100.00
25664;BME280;13522;50.018;20.014;2022-12-17T02:52:49;98853.07;;;-2.28;100.00
25664;BME280;13522;50.018;20.014;2022-12-17T02:56:28;98913.53;;;-2.23;100.00
25664;BME280;13522;50.018;20.014;2022-12-17T02:59:55;98910.69;;;-2.17;100.00
25664;BME280;13522;50.018;20.014;2022-12-17T03:03:22;98905.42;;;-2.16;100.00
25664;BME280;13522;50.018;20.014;2022-12-17T03:06:50;98906.09;;;-2.11;100.00
25664;BME280;13522;50.018;20.014;2022-12-17T03:10:17;98892.38;;;-2.14;100.00
25664;BME280;13522;50.018;20.014;2022-12-17T03:13:43;98899.43;;;-2.18;100.00
25664;BME280;13522;50.018;20.014;2022-12-17T03:17:10;98885.61;;;-2.18;100.00
25664;BME280;13522;50.018;20.014;2022-12-17T03:20:36;98879.38;;;-2.14;100.00
25664;BME280;13522;50.018;20.014;2022-12-17T03:24:03;98882.70;;;-2.32;100.00
25664;BME280;13522;50.018;20.014;2022-12-17T03:27:30;98890.37;;;-2.29;100.00
25664;BME280;13522;50.018;20.014;2022-12-17T03:30:58;98891.84;;;-2.22;100.00
25664;BME280;13522;50.018;20.014;2022-12-17T03:34:24;98872.91;;;-2.26;100.00
25664;BME280;13522;50.018;20.014;2022-12-17T03:37:51;98883.25;;;-2.24;100.00
25664;BME280;13522;50.018;20.014;2022-12-17T03:41:18;98879.55;;;-2.19;100.00
25664;BME280;13522;50.018;20.014;2022-12-17T03:44:44;98885.47;;;-2.15;100.00
25664;BME280;13522;50.018;20.014;2022-12-17T03:48:13;98868.05;;;-2.13;100.00
25664;BME280;13522;50.018;20.014;2022-12-17T03:51:54;98863.02;;;-2.18;100.00
25664;BME280;13522;50.018;20.014;2022-12-17T03:55:21;98871.06;;;-2.24;100.00
25664;BME280;13522;50.018;20.014;2022-12-17T03:58:47;98870.35;;;-2.27;100.00
25664;BME280;13522;50.018;20.014;2022-12-17T04:02:14;98873.73;;;-2.25;100.00
25664;BME280;13522;50.018;20.014;2022-12-17T04:05:41;98878.69;;;-2.19;100.00
25664;BME280;13522;50.018;20.014;2022-12-17T04:09:07;98884.92;;;-2.23;100.00
25664;BME280;13522;50.018;20.014;2022-12-17T04:12:34;98889.48;;;-2.28;100.00
25664;BME280;13522;50.018;20.014;2022-12-17T04:16:01;98901.31;;;-2.21;100.00
25664;BME280;13522;50.018;20.014;2022-12-17T04:19:27;98904.70;;;-2.19;100.00
25664;BME280;13522;50.018;20.014;2022-12-17T04:22:53;98904.95;;;-2.25;100.00
25664;BME280;13522;50.018;20.014;2022-12-17T04:26:20;98910.86;;;-2.22;100.00
25664;BME280;13522;50.018;20.014;2022-12-17T04:29:46;98909.33;;;-2.26;100.00
25664;BME280;13522;50.018;20.014;2022-12-17T04:33:13;98923.05;;;-2.22;100.00
25664;BME280;13522;50.018;20.014;2022-12-17T04:36:40;98928.59;;;-2.31;100.00
25664;BME280;13522;50.018;20.014;2022-12-17T04:40:10;98927.94;;;-2.36;100.00
25664;BME280;13522;50.018;20.014;2022-12-17T04:43:36;98932.35;;;-2.38;100.00
25664;BME280;13522;50.018;20.014;2022-12-17T04:47:05;98930.47;;;-2.35;100.00
25664;BME280;13522;50.018;20.014;2022-12-17T04:50:31;98932.05;;;-2.31;100.00
25664;BME280;13522;50.018;20.014;2022-12-17T04:53:58;98925.99;;;-2.31;100.00
25664;BME280;13522;50.018;20.014;2022-12-17T04:57:24;98930.95;;;-2.25;100.00
25664;BME280;13522;50.018;20.014;2022-12-17T05:00:53;98930.06;;;-2.24;100.00
25664;BME280;13522;50.018;20.014;2022-12-17T05:04:22;98926.91;;;-2.32;100.00
25664;BME280;13522;50.018;20.014;2022-12-17T05:07:49;98930.23;;;-2.29;100.00
25664;BME280;13522;50.018;20.014;2022-12-17T05:11:18;98942.45;;;-2.31;100.00
25664;BME280;13522;50.018;20.014;2022-12-17T05:14:44;98950.32;;;-2.32;100.00
25664;BME280;13522;50.018;20.014;2022-12-17T05:18:25;98955.75;;;-2.38;100.00
25664;BME280;13522;50.018;20.014;2022-12-17T05:21:52;98957.33;;;-2.34;100.00
25664;BME280;13522;50.018;20.014;2022-12-17T05:25:18;98955.52;;;-2.32;100.00
25664;BME280;13522;50.018;20.014;2022-12-17T05:28:45;98945.97;;;-2.32;100.00
25664;BME280;13522;50.018;20.014;2022-12-17T05:32:14;98945.97;;;-2.32;100.00
25664;BME280;13522;50.018;20.014;2022-12-17T05:35:40;98955.63;;;-2.35;100.00
25664;BME280;13522;50.018;20.014;2022-12-17T05:39:06;98957.56;;;-2.40;100.00
25664;BME280;13522;50.018;20.014;2022-12-17T05:42:33;98952.36;;;-2.40;100.00
25664;BME280;13522;50.018;20.014;2022-12-17T05:45:59;98955.75;;;-2.38;100.00
25664;BME280;13522;50.018;20.014;2022-12-17T05:49:28;98960.95;;;-2.38;100.00
25664;BME280;13522;50.018;20.014;2022-12-17T05:52:56;98966.81;;;-2.33;100.00
25664;BME280;13522;50.018;20.014;2022-12-17T05:56:25;98967.59;;;-2.31;100.00
25664;BME280;13522;50.018;20.014;2022-12-17T05:59:52;98979.95;;;-2.36;100.00
25664;BME280;13522;50.018;20.014;2022-12-17T06:03:18;98979.22;;;-2.40;100.00
25664;BME280;13522;50.018;20.014;2022-12-17T06:06:46;98976.48;;;-2.37;100.00
25664;BME280;13522;50.018;20.014;2022-12-17T06:10:13;98982.72;;;-2.41;100.00
25664;BME280;13522;50.018;20.014;2022-12-17T06:13:40;99001.05;;;-2.44;100.00
25664;BME280;13522;50.018;20.014;2022-12-17T06:17:07;99011.61;;;-2.48;100.00
25664;BME280;13522;50.018;20.014;2022-12-17T06:20:33;99014.05;;;-2.44;100.00
25664;BME280;13522;50.018;20.014;2022-12-17T06:23:59;99020.86;;;-2.41;100.00
25664;BME280;13522;50.018;20.014;2022-12-17T06:27:26;99025.49;;;-2.49;100.00
25664;BME280;13522;50.018;20.014;2022-12-17T06:30:54;99030.47;;;-2.43;100.00
25664;BME280;13522;50.018;20.014;2022-12-17T06:34:20;99046.06;;;-2.43;100.00
25664;BME280;13522;50.018;20.014;2022-12-17T06:37:47;99040.77;;;-2.40;100.00
25664;BME280;13522;50.018;20.014;2022-12-17T06:41:15;99047.66;;;-2.39;100.00
25664;BME280;13522;50.018;20.014;2022-12-17T06:44:42;99046.92;;;-2.43;100.00
25664;BME280;13522;50.018;20.014;2022-12-17T06:48:09;99051.17;;;-2.40;100.00
25664;BME280;13522;50.018;20.014;2022-12-17T06:51:35;99058.02;;;-2.38;100.00
25664;BME280;13522;50.018;20.014;2022-12-17T06:55:02;99084.05;;;-2.39;100.00
25664;BME280;13522;50.018;20.014;2022-12-17T06:58:29;99104.86;;;-2.39;100.00
25664;BME280;13522;50.018;20.014;2022-12-17T07:01:56;99121.53;;;-2.45;100.00
25664;BME280;13522;50.018;20.014;2022-12-17T07:05:22;99136.49;;;-2.51;100.00
25664;BME280;13522;50.018;20.014;2022-12-17T07:08:48;99146.95;;;-2.53;100.00
25664;BME280;13522;50.018;20.014;2022-12-17T07:12:15;99133.34;;;-2.59;100.00
25664;BME280;13522;50.018;20.014;2022-12-17T07:15:41;99143.41;;;-2.50;100.00
25664;BME280;13522;50.018;20.014;2022-12-17T07:19:08;99142.48;;;-2.49;100.00
25664;BME280;13522;50.018;20.014;2022-12-17T07:22:35;99139.16;;;-2.53;100.00
25664;BME280;13522;50.018;20.014;2022-12-17T07:26:01;99140.01;;;-2.52;100.00
25664;BME280;13522;50.018;20.014;2022-12-17T07:29:28;99127.80;;;-2.50;100.00
25664;BME280;13522;50.018;20.014;2022-12-17T07:33:00;99123.55;;;-2.53;100.00
25664;BME280;13522;50.018;20.014;2022-12-17T07:36:27;99132.89;;;-2.47;100.00
25664;BME280;13522;50.018;20.014;2022-12-17T07:39:54;99141.11;;;-2.35;100.00
25664;BME280;13522;50.018;20.014;2022-12-17T07:43:20;99154.54;;;-2.22;100.00
25664;BME280;13522;50.018;20.014;2022-12-17T07:46:47;99169.07;;;-2.17;100.00
25664;BME280;13522;50.018;20.014;2022-12-17T07:50:13;99163.74;;;-2.14;100.00
25664;BME280;13522;50.018;20.014;2022-12-17T07:53:40;99166.19;;;-2.09;100.00
25664;BME280;13522;50.018;20.014;2022-12-17T07:57:06;99162.48;;;-2.02;100.00
25664;BME280;13522;50.018;20.014;2022-12-17T08:00:33;99166.48;;;-1.94;100.00
25664;BME280;13522;50.018;20.014;2022-12-17T08:04:00;99175.42;;;-2.01;100.00
25664;BME280;13522;50.018;20.014;2022-12-17T08:07:27;99189.76;;;-2.14;100.00
25664;BME280;13522;50.018;20.014;2022-12-17T08:10:53;99194.14;;;-2.14;100.00
25664;BME280;13522;50.018;20.014;2022-12-17T08:14:25;99200.50;;;-2.23;100.00
25664;BME280;13522;50.018;20.014;2022-12-17T08:17:51;99204.70;;;-2.19;100.00
25664;BME280;13522;50.018;20.014;2022-12-17T08:21:20;99210.05;;;-2.23;100.00
25664;BME280;13522;50.018;20.014;2022-12-17T08:25:01;99209.16;;;-2.22;100.00
25664;BME280;13522;50.018;20.014;2022-12-17T08:28:28;99220.24;;;-2.17;100.00
25664;BME280;13522;50.018;20.014;2022-12-17T08:31:56;99225.36;;;-2.14;100.00
25664;BME280;13522;50.018;20.014;2022-12-17T08:35:23;99225.45;;;-2.17;100.00
25664;BME280;13522;50.018;20.014;2022-12-17T08:38:49;99228.97;;;-2.18;100.00
25664;BME280;13522;50.018;20.014;2022-12-17T08:42:15;99233.95;;;-2.12;100.00
25664;BME280;13522;50.018;20.014;2022-12-17T08:45:46;99233.83;;;-2.09;100.00
25664;BME280;13522;50.018;20.014;2022-12-17T08:49:14;99242.01;;;-1.95;100.00
25664;BME280;13522;50.018;20.014;2022-12-17T08:52:41;99247.09;;;-1.92;100.00
25664;BME280;13522;50.018;20.014;2022-12-17T08:56:08;99254.80;;;-1.89;100.00
25664;BME280;13522;50.018;20.014;2022-12-17T08:59:35;99268.46;;;-1.83;100.00
25664;BME280;13522;50.018;20.014;2022-12-17T09:03:02;99256.75;;;-1.71;100.00
25664;BME280;13522;50.018;20.014;2022-12-17T09:06:29;99261.61;;;-1.62;100.00
25664;BME280;13522;50.018;20.014;2022-12-17T09:09:56;99257.70;;;-1.73;100.00
25664;BME280;13522;50.018;20.014;2022-12-17T09:13:22;99257.83;;;-1.77;100.00
25664;BME280;13522;50.018;20.014;2022-12-17T09:16:48;99256.31;;;-1.59;100.00
25664;BME280;13522;50.018;20.014;2022-12-17T09:20:15;99259.87;;;-1.61;100.00
25664;BME280;13522;50.018;20.014;2022-12-17T09:23:42;99240.91;;;-1.65;100.00
25664;BME280;13522;50.018;20.014;2022-12-17T09:27:08;99245.67;;;-1.53;100.00
25664;BME280;13522;50.018;20.014;2022-12-17T09:30:34;99240.67;;;-1.36;100.00
25664;BME280;13522;50.018;20.014;2022-12-17T09:34:01;99245.35;;;-1.22;100.00
25664;BME280;13522;50.018;20.014;2022-12-17T09:37:28;99247.32;;;-1.06;100.00
25664;BME280;13522;50.018;20.014;2022-12-17T09:40:54;99240.53;;;-1.10;100.00
25664;BME280;13522;50.018;20.014;2022-12-17T09:44:42;99228.86;;;-1.23;100.00
25664;BME280;13522;50.018;20.014;2022-12-17T09:48:15;99226.95;;;-1.18;100.00
25664;BME280;13522;50.018;20.014;2022-12-17T09:51:44;99237.83;;;-1.30;100.00
25664;BME280;13522;50.018;20.014;2022-12-17T09:55:19;99237.05;;;-1.32;100.00
25664;BME280;13522;50.018;20.014;2022-12-17T09:58:46;99246.90;;;-1.40;100.00
25664;BME280;13522;50.018;20.014;2022-12-17T10:02:18;99242.05;;;-1.49;100.00
25664;BME280;13522;50.018;20.014;2022-12-17T10:05:48;99263.83;;;-1.74;100.00
25664;BME280;13522;50.018;20.014;2022-12-17T10:09:17;99262.46;;;-1.85;100.00
25664;BME280;13522;50.018;20.014;2022-12-17T10:12:44;99263.56;;;-1.92;100.00
25664;BME280;13522;50.018;20.014;2022-12-17T10:16:25;99268.83;;;-1.93;100.00
25664;BME280;13522;50.018;20.014;2022-12-17T10:19:55;99260.38;;;-2.00;100.00
25664;BME280;13522;50.018;20.014;2022-12-17T10:23:26;99288.27;;;-2.03;100.00
25664;BME280;13522;50.018;20.014;2022-12-17T10:26:53;99272.77;;;-2.06;100.00
25664;BME280;13522;50.018;20.014;2022-12-17T10:30:20;99270.70;;;-1.97;100.00
25664;BME280;13522;50.018;20.014;2022-12-17T10:33:57;99285.39;;;-1.96;100.00
25664;BME280;13522;50.018;20.014;2022-12-17T10:37:24;99276.30;;;-1.84;100.00
25664;BME280;13522;50.018;20.014;2022-12-17T10:40:53;99284.97;;;-1.84;100.00
25664;BME280;13522;50.018;20.014;2022-12-17T10:44:27;99283.50;;;-1.91;100.00
25664;BME280;13522;50.018;20.014;2022-12-17T10:47:54;99298.25;;;-1.91;100.00
25664;BME280;13522;50.018;20.014;2022-12-17T10:51:26;99314.14;;;-1.99;100.00
25664;BME280;13522;50.018;20.014;2022-12-17T10:55:01;99316.89;;;-2.03;100.00
25664;BME280;13522;50.018;20.014;2022-12-17T10:58:30;99311.20;;;-2.14;100.00
25664;BME280;13522;50.018;20.014;2022-12-17T11:02:02;99303.28;;;-2.11;100.00
25664;BME280;13522;50.018;20.014;2022-12-17T11:05:35;99297.08;;;-2.07;100.00
25664;BME280;13522;50.018;20.014;2022-12-17T11:09:04;99296.06;;;-2.03;100.00
25664;BME280;13522;50.018;20.014;2022-12-17T11:12:35;99310.95;;;-2.07;100.00
25664;BME280;13522;50.018;20.014;2022-12-17T11:16:09;99320.61;;;-2.10;100.00
25664;BME280;13522;50.018;20.014;2022-12-17T11:19:42;99322.50;;;-2.15;100.00
25664;BME280;13522;50.018;20.014;2022-12-17T11:23:14;99318.21;;;-2.16;100.00
25664;BME280;13522;50.018;20.014;2022-12-17T11:26:44;99320.70;;;-2.13;100.00
25664;BME280;13522;50.018;20.014;2022-12-17T11:30:15;99325.36;;;-2.23;100.00
25664;BME280;13522;50.018;20.014;2022-12-17T11:34:01;99320.81;;;-2.16;100.00
25664;BME280;13522;50.018;20.014;2022-12-17T11:37:31;99340.31;;;-2.29;100.00
25664;BME280;13522;50.018;20.014;2022-12-17T11:41:03;99351.31;;;-2.21;100.00
25664;BME280;13522;50.018;20.014;2022-12-17T11:44:42;99350.83;;;-2.32;100.00
25664;BME280;13522;50.018;20.014;2022-12-17T11:48:18;99346.50;;;-2.33;100.00
25664;BME280;13522;50.018;20.014;2022-12-17T11:51:49;99361.23;;;-2.32;100.00
25664;BME280;13522;50.018;20.014;2022-12-17T11:55:22;99356.11;;;-2.35;100.00
25664;BME280;13522;50.018;20.014;2022-12-17T11:58:55;99358.49;;;-2.28;100.00
25664;BME280;13522;50.018;20.014;2022-12-17T12:02:41;99351.63;;;-2.30;100.00
25664;BME280;13522;50.018;20.014;2022-12-17T12:06:16;99362.42;;;-2.42;100.00
25664;BME280;13522;50.018;20.014;2022-12-17T12:09:51;99373.81;;;-2.46;100.00
25664;BME280;13522;50.018;20.014;2022-12-17T12:13:21;99375.50;;;-2.45;100.00
25664;BME280;13522;50.018;20.014;2022-12-17T12:16:54;99379.95;;;-2.49;100.00
25664;BME280;13522;50.018;20.014;2022-12-17T12:20:32;99367.89;;;-2.51;100.00
25664;BME280;13522;50.018;20.014;2022-12-17T12:24:10;99372.82;;;-2.42;100.00
25664;BME280;13522;50.018;20.014;2022-12-17T12:27:48;99390.47;;;-2.52;100.00
25664;BME280;13522;50.018;20.014;2022-12-17T12:31:25;99401.69;;;-2.51;100.00
25664;BME280;13522;50.018;20.014;2022-12-17T12:34:57;99416.77;;;-2.62;100.00
25664;BME280;13522;50.018;20.014;2022-12-17T12:38:29;99416.65;;;-2.58;100.00
25664;BME280;13522;50.018;20.014;2022-12-17T12:42:00;99398.39;;;-2.56;100.00
25664;BME280;13522;50.018;20.014;2022-12-17T12:45:39;99420.18;;;-2.60;100.00
25664;BME280;13522;50.018;20.014;2022-12-17T12:49:12;99432.06;;;-2.52;100.00
25664;BME280;13522;50.018;20.014;2022-12-17T12:52:37;99440.91;;;-2.57;100.00
25664;BME280;13522;50.018;20.014;2022-12-17T12:56:04;99442.83;;;-2.64;100.00
25664;BME280;13522;50.018;20.014;2022-12-17T12:59:48;99452.13;;;-2.57;100.00
25664;BME280;13522;50.018;20.014;2022-12-17T13:03:27;99457.56;;;-2.65;100.00
25664;BME280;13522;50.018;20.014;2022-12-17T13:06:56;99464.38;;;-2.60;100.00
25664;BME280;13522;50.018;20.014;2022-12-17T13:10:18;99466.05;;;-2.58;100.00
25664;BME280;13522;50.018;20.014;2022-12-17T13:13:35;99474.77;;;-2.60;100.00
25664;BME280;13522;50.018;20.014;2022-12-17T13:16:56;99474.83;;;-2.62;100.00
25664;BME280;13522;50.018;20.014;2022-12-17T13:20:30;99474.88;;;-2.63;100.00
25664;BME280;13522;50.018;20.014;2022-12-17T13:23:43;99479.91;;;-2.57;100.00
25664;BME280;13522;50.018;20.014;2022-12-17T13:26:55;99484.19;;;-2.56;100.00
25664;BME280;13522;50.018;20.014;2022-12-17T13:30:22;99482.34;;;-2.53;100.00
25664;BME280;13522;50.018;20.014;2022-12-17T13:33:47;99486.89;;;-2.59;100.00
25664;BME280;13522;50.018;20.014;2022-12-17T13:37:06;99492.09;;;-2.59;100.00
25664;BME280;13522;50.018;20.014;2022-12-17T13:40:26;99501.58;;;-2.58;100.00
25664;BME280;13522;50.018;20.014;2022-12-17T13:43:45;99508.57;;;-2.60;100.00
25664;BME280;13522;50.018;20.014;2022-12-17T13:46:59;99512.08;;;-2.61;100.00
25664;BME280;13522;50.018;20.014;2022-12-17T13:50:22;99520.81;;;-2.64;100.00
25664;BME280;13522;50.018;20.014;2022-12-17T13:53:38;99533.76;;;-2.62;100.00
25664;BME280;13522;50.018;20.014;2022-12-17T13:56:50;99534.57;;;-2.60;100.00
25664;BME280;13522;50.018;20.014;2022-12-17T14:00:05;99543.40;;;-2.66;100.00
25664;BME280;13522;50.018;20.014;2022-12-17T14:03:20;99543.34;;;-2.65;100.00
25664;BME280;13522;50.018;20.014;2022-12-17T14:06:36;99551.91;;;-2.61;100.00
25664;BME280;13522;50.018;20.014;2022-12-17T14:09:49;99555.42;;;-2.62;100.00
25664;BME280;13522;50.018;20.014;2022-12-17T14:13:05;99564.20;;;-2.66;100.00
25664;BME280;13522;50.018;20.014;2022-12-17T14:16:20;99566.84;;;-2.68;100.00
25664;BME280;13522;50.018;20.014;2022-12-17T14:19:33;99571.19;;;-2.68;100.00
25664;BME280;13522;50.018;20.014;2022-12-17T14:22:48;99572.92;;;-2.69;100.00
25664;BME280;13522;50.018;20.014;2022-12-17T14:26:04;99579.84;;;-2.68;100.00
25664;BME280;13522;50.018;20.014;2022-12-17T14:29:22;99590.25;;;-2.69;100.00
25664;BME280;13522;50.018;20.014;2022-12-17T14:32:46;99597.83;;;-2.60;100.00
25664;BME280;13522;50.018;20.014;2022-12-17T14:35:53;99599.56;;;-2.60;100.00
25664;BME280;13522;50.018;20.014;2022-12-17T14:39:14;99605.85;;;-2.69;100.00
25664;BME280;13522;50.018;20.014;2022-12-17T14:42:27;99599.73;;;-2.67;100.00
25664;BME280;13522;50.018;20.014;2022-12-17T14:45:47;99611.91;;;-2.69;100.00
25664;BME280;13522;50.018;20.014;2022-12-17T14:49:16;99613.80;;;-2.74;100.00
25664;BME280;13522;50.018;20.014;2022-12-17T14:52:36;99619.82;;;-2.73;100.00
25664;BME280;13522;50.018;20.014;2022-12-17T14:55:55;99620.03;;;-2.81;100.00
25664;BME280;13522;50.018;20.014;2022-12-17T14:59:22;99633.95;;;-2.83;100.00
25664;BME280;13522;50.018;20.014;2022-12-17T15:02:43;99645.45;;;-2.92;100.00
25664;BME280;13522;50.018;20.014;2022-12-17T15:06:00;99643.73;;;-2.93;100.00
25664;BME280;13522;50.018;20.014;2022-12-17T15:09:13;99647.23;;;-2.94;100.00
25664;BME280;13522;50.018;20.014;2022-12-17T15:12:26;99650.75;;;-2.96;100.00
25664;BME280;13522;50.018;20.014;2022-12-17T15:15:38;99648.25;;;-2.99;100.00
25664;BME280;13522;50.018;20.014;2022-12-17T15:18:50;99656.05;;;-3.01;100.00
25664;BME280;13522;50.018;20.014;2022-12-17T15:22:03;99658.80;;;-3.07;100.00
25664;BME280;13522;50.018;20.014;2022-12-17T15:25:17;99665.00;;;-3.12;100.00
25664;BME280;13522;50.018;20.014;2022-12-17T15:28:30;99664.95;;;-3.11;100.00
25664;BME280;13522;50.018;20.014;2022-12-17T15:31:42;99669.28;;;-3.10;100.00
25664;BME280;13522;50.018;20.014;2022-12-17T15:34:54;99665.92;;;-3.15;100.00
25664;BME280;13522;50.018;20.014;2022-12-17T15:38:07;99678.91;;;-3.15;100.00
25664;BME280;13522;50.018;20.014;2022-12-17T15:41:20;99674.66;;;-3.17;100.00
25664;BME280;13522;50.018;20.014;2022-12-17T15:44:47;99682.41;;;-3.16;100.00
25664;BME280;13522;50.018;20.014;2022-12-17T15:47:58;99685.89;;;-3.17;100.00
25664;BME280;13522;50.018;20.014;2022-12-17T15:51:10;99691.08;;;-3.17;100.00
25664;BME280;13522;50.018;20.014;2022-12-17T15:54:25;99693.68;;;-3.17;100.00
25664;BME280;13522;50.018;20.014;2022-12-17T15:57:36;99698.05;;;-3.19;100.00
25664;BME280;13522;50.018;20.014;2022-12-17T16:00:48;99698.00;;;-3.16;100.00
25664;BME280;13522;50.018;20.014;2022-12-17T16:04:01;99691.08;;;-3.17;100.00
25664;BME280;13522;50.018;20.014;2022-12-17T16:07:15;99702.38;;;-3.18;100.00
25664;BME280;13522;50.018;20.014;2022-12-17T16:10:28;99720.55;;;-3.18;100.00
25664;BME280;13522;50.018;20.014;2022-12-17T16:13:42;99717.14;;;-3.20;100.00
25664;BME280;13522;50.018;20.014;2022-12-17T16:16:54;99716.23;;;-3.17;100.00
25664;BME280;13522;50.018;20.014;2022-12-17T16:20:08;99723.89;;;-3.13;100.00
25664;BME280;13522;50.018;20.014;2022-12-17T16:23:21;99725.67;;;-3.15;100.00
25664;BME280;13522;50.018;20.014;2022-12-17T16:26:33;99732.59;;;-3.14;100.00
25664;BME280;13522;50.018;20.014;2022-12-17T16:29:46;99736.06;;;-3.15;100.00
25664;BME280;13522;50.018;20.014;2022-12-17T16:32:59;99734.36;;;-3.16;100.00
25664;BME280;13522;50.018;20.014;2022-12-17T16:36:15;99742.16;;;-3.16;100.00
25664;BME280;13522;50.018;20.014;2022-12-17T16:39:28;99748.22;;;-3.17;100.00
25664;BME280;13522;50.018;20.014;2022-12-17T16:42:40;99747.35;;;-3.16;100.00
25664;BME280;13522;50.018;20.014;2022-12-17T16:45:53;99748.13;;;-3.12;100.00
25664;BME280;13522;50.018;20.014;2022-12-17T16:49:07;99750.77;;;-3.14;100.00
25664;BME280;13522;50.018;20.014;2022-12-17T16:52:21;99761.08;;;-3.11;100.00
25664;BME280;13522;50.018;20.014;2022-12-17T16:55:33;99767.09;;;-3.09;100.00
25664;BME280;13522;50.018;20.014;2022-12-17T16:58:50;99764.50;;;-3.09;100.00
25664;BME280;13522;50.018;20.014;2022-12-17T17:02:02;99768.05;;;-3.11;100.00
25664;BME280;13522;50.018;20.014;2022-12-17T17:05:15;99768.87;;;-3.11;100.00
25664;BME280;13522;50.018;20.014;2022-12-17T17:08:27;99781.91;;;-3.12;100.00
25664;BME280;13522;50.018;20.014;2022-12-17T17:11:40;99787.92;;;-3.10;100.00
25664;BME280;13522;50.018;20.014;2022-12-17T17:14:54;99793.98;;;-3.10;100.00
25664;BME280;13522;50.018;20.014;2022-12-17T17:18:06;99799.22;;;-3.11;100.00
25664;BME280;13522;50.018;20.014;2022-12-17T17:21:26;99808.66;;;-3.07;100.00
25664;BME280;13522;50.018;20.014;2022-12-17T17:24:39;99809.61;;;-3.13;100.00
25664;BME280;13522;50.018;20.014;2022-12-17T17:27:52;99812.25;;;-3.14;100.00
25664;BME280;13522;50.018;20.014;2022-12-17T17:31:05;99820.00;;;-3.13;100.00
25664;BME280;13522;50.018;20.014;2022-12-17T17:34:19;99825.19;;;-3.11;100.00
25664;BME280;13522;50.018;20.014;2022-12-17T17:37:31;99825.24;;;-3.14;100.00
25664;BME280;13522;50.018;20.014;2022-12-17T17:40:43;99833.86;;;-3.12;100.00